createdAt,value
2019-04-04T00:00:16.272Z,7.80
2019-04-04T00:02:46.109Z,7.80
2019-04-04T00:05:15.216Z,7.80
2019-04-04T00:07:44.344Z,7.80
2019-04-04T00:10:13.397Z,7.70
2019-04-04T00:12:42.527Z,7.70
2019-04-04T00:15:12.980Z,7.80
2019-04-04T00:17:42.595Z,7.70
2019-04-04T00:20:11.610Z,7.80
2019-04-04T00:22:40.711Z,7.70
2019-04-04T00:25:10.495Z,7.60
2019-04-04T00:27:39.828Z,7.70
2019-04-04T00:30:09.233Z,7.70
2019-04-04T00:32:38.394Z,7.70
2019-04-04T00:35:07.495Z,7.80
2019-04-04T00:37:36.580Z,7.80
2019-04-04T00:40:07.244Z,7.90
2019-04-04T00:42:36.409Z,7.80
2019-04-04T00:45:07.181Z,7.90
2019-04-04T00:47:36.164Z,7.90
2019-04-04T00:50:07.027Z,7.90
2019-04-04T00:52:36.245Z,7.80
2019-04-04T00:55:06.720Z,7.80
2019-04-04T00:57:35.760Z,7.70
2019-04-04T01:00:07.293Z,7.60
2019-04-04T01:02:36.280Z,7.50
2019-04-04T01:05:06.347Z,7.60
2019-04-04T01:07:35.797Z,7.60
2019-04-04T01:10:07.522Z,7.60
2019-04-04T01:12:36.606Z,7.60
2019-04-04T01:15:07.622Z,7.70
2019-04-04T01:17:36.725Z,7.70
2019-04-04T01:20:07.725Z,7.80
2019-04-04T01:22:36.872Z,7.70
2019-04-04T01:25:07.020Z,7.80
2019-04-04T01:27:36.904Z,7.80
2019-04-04T01:30:08.276Z,7.90
2019-04-04T01:32:37.598Z,7.90
2019-04-04T01:35:07.644Z,8.00
2019-04-04T01:37:36.840Z,8.10
2019-04-04T01:40:06.413Z,8.20
2019-04-04T01:42:38.087Z,8.20
2019-04-04T01:45:08.445Z,8.30
2019-04-04T01:47:37.581Z,8.30
2019-04-04T01:50:06.905Z,8.40
2019-04-04T01:52:36.136Z,8.40
2019-04-04T01:55:06.392Z,8.30
2019-04-04T01:57:38.571Z,8.30
2019-04-04T02:00:08.166Z,8.30
2019-04-04T02:02:37.489Z,8.30
2019-04-04T02:05:06.781Z,8.30
2019-04-04T02:07:35.974Z,8.30
2019-04-04T02:10:06.882Z,8.40
2019-04-04T02:12:38.388Z,8.30
2019-04-04T02:15:08.841Z,8.30
2019-04-04T02:17:37.848Z,8.30
2019-04-04T02:20:07.432Z,8.30
2019-04-04T02:22:36.398Z,8.20
2019-04-04T02:25:06.756Z,8.10
2019-04-04T02:27:37.681Z,8.10
2019-04-04T02:30:07.894Z,8.10
2019-04-04T02:32:36.914Z,8.10
2019-04-04T02:35:10.013Z,8.10
2019-04-04T02:37:37.980Z,8.10
2019-04-04T02:40:08.877Z,8.10
2019-04-04T02:42:39.073Z,8.10
2019-04-04T02:45:08.484Z,8.10
2019-04-04T02:47:37.653Z,8.20
2019-04-04T02:50:07.653Z,8.20
2019-04-04T02:52:36.908Z,8.20
2019-04-04T02:55:06.409Z,8.10
2019-04-04T02:57:35.555Z,8.10
2019-04-04T03:00:06.425Z,8.10
2019-04-04T03:02:36.926Z,8.10
2019-04-04T03:05:06.593Z,8.10
2019-04-04T03:07:35.803Z,8.10
2019-04-04T03:10:06.057Z,8.10
2019-04-04T03:12:35.147Z,8.10
2019-04-04T03:15:08.863Z,8.20
2019-04-04T03:17:37.058Z,8.20
2019-04-04T03:20:07.337Z,8.20
2019-04-04T03:22:36.457Z,8.20
2019-04-04T03:25:06.213Z,8.30
2019-04-04T03:27:35.221Z,8.30
2019-04-04T03:30:13.407Z,8.30
2019-04-04T03:32:37.134Z,8.40
2019-04-04T03:35:07.097Z,8.40
2019-04-04T03:37:40.623Z,8.50
2019-04-04T03:40:07.181Z,8.40
2019-04-04T03:42:36.180Z,8.40
2019-04-04T03:45:06.454Z,8.40
2019-04-04T03:47:35.549Z,8.40
2019-04-04T03:50:06.629Z,8.30
2019-04-04T03:52:36.076Z,8.30
2019-04-04T03:55:07.035Z,8.40
2019-04-04T03:57:36.015Z,8.40
2019-04-04T04:00:07.495Z,8.30
2019-04-04T04:02:36.805Z,8.20
2019-04-04T04:05:08.870Z,8.20
2019-04-04T04:07:37.881Z,8.20
2019-04-04T04:10:07.235Z,8.20
2019-04-04T04:12:36.223Z,8.20
2019-04-04T04:15:06.228Z,8.20
2019-04-04T04:17:36.492Z,8.20
2019-04-04T04:20:06.815Z,8.20
2019-04-04T04:22:35.831Z,8.20
2019-04-04T04:25:06.172Z,8.20
2019-04-04T04:27:35.214Z,8.20
2019-04-04T04:30:07.256Z,8.20
2019-04-04T04:32:37.422Z,8.10
2019-04-04T04:35:08.590Z,8.10
2019-04-04T04:37:37.634Z,8.10
2019-04-04T04:40:06.755Z,8.00
2019-04-04T04:42:35.869Z,8.00
2019-04-04T04:45:11.002Z,8.00
2019-04-04T04:47:37.350Z,8.00
2019-04-04T04:50:09.686Z,7.90
2019-04-04T04:52:38.162Z,7.90
2019-04-04T04:55:07.367Z,8.00
2019-04-04T04:57:37.216Z,8.10
2019-04-04T05:00:07.438Z,8.00
2019-04-04T05:02:36.505Z,8.10
2019-04-04T05:05:07.214Z,8.10
2019-04-04T05:07:38.427Z,8.10
2019-04-04T05:10:08.554Z,8.10
2019-04-04T05:12:37.874Z,8.00
2019-04-04T05:15:07.048Z,8.10
2019-04-04T05:17:36.257Z,8.10
2019-04-04T05:20:06.964Z,8.10
2019-04-04T05:22:35.925Z,8.20
2019-04-04T05:25:08.736Z,8.20
2019-04-04T05:27:37.907Z,8.20
2019-04-04T05:30:08.458Z,8.20
2019-04-04T05:32:37.842Z,8.20
2019-04-04T05:35:07.661Z,8.20
2019-04-04T05:37:38.297Z,8.30
2019-04-04T05:40:08.221Z,8.30
2019-04-04T05:42:37.297Z,8.40
2019-04-04T05:45:07.827Z,8.40
2019-04-04T05:47:36.938Z,8.30
2019-04-04T05:50:07.314Z,8.40
2019-04-04T05:52:38.096Z,8.40
2019-04-04T05:55:09.956Z,8.40
2019-04-04T05:57:38.762Z,8.50
2019-04-04T06:00:11.281Z,8.50
2019-04-04T06:02:41.108Z,8.50
2019-04-04T06:05:11.354Z,8.50
2019-04-04T06:07:40.566Z,8.60
2019-04-04T06:10:12.039Z,8.60
2019-04-04T06:12:40.527Z,8.60
2019-04-04T06:15:09.848Z,8.50
2019-04-04T06:17:39.831Z,8.40
2019-04-04T06:20:09.592Z,8.40
2019-04-04T06:22:38.846Z,8.30
2019-04-04T06:25:08.804Z,8.40
2019-04-04T06:27:39.911Z,8.40
2019-04-04T06:30:08.799Z,8.40
2019-04-04T06:32:38.965Z,8.40
2019-04-04T06:35:08.467Z,8.40
2019-04-04T06:37:38.782Z,8.40
2019-04-04T06:40:08.890Z,8.60
2019-04-04T06:42:38.088Z,8.70
2019-04-04T06:45:07.629Z,8.90
2019-04-04T06:47:36.693Z,8.80
2019-04-04T06:50:08.079Z,8.80
2019-04-04T06:52:37.470Z,8.70
2019-04-04T06:55:07.172Z,8.60
2019-04-04T06:57:37.372Z,8.50
2019-04-04T07:00:08.665Z,8.40
2019-04-04T07:02:38.021Z,8.10
2019-04-04T07:05:10.591Z,7.70
2019-04-04T07:07:42.987Z,7.40
2019-04-04T07:10:10.597Z,7.20
2019-04-04T07:12:39.628Z,7.10
2019-04-04T07:15:12.467Z,6.90
2019-04-04T07:17:41.043Z,6.80
2019-04-04T07:20:10.578Z,6.80
2019-04-04T07:22:39.634Z,6.60
2019-04-04T07:25:09.003Z,6.60
2019-04-04T07:27:38.096Z,6.60
2019-04-04T07:30:08.166Z,6.30
2019-04-04T07:32:40.823Z,6.30
2019-04-04T07:35:08.321Z,6.20
2019-04-04T07:37:37.342Z,6.10
2019-04-04T07:40:06.714Z,6.10
2019-04-04T07:42:35.887Z,6.10
2019-04-04T07:45:06.857Z,6.10
2019-04-04T07:47:35.865Z,5.90
2019-04-04T07:50:05.951Z,5.90
2019-04-04T07:52:35.268Z,5.90
2019-04-04T07:55:06.066Z,6.00
2019-04-04T07:57:35.112Z,6.00
2019-04-04T08:00:08.371Z,5.90
2019-04-04T08:02:37.373Z,5.90
2019-04-04T08:05:09.386Z,6.00
2019-04-04T08:07:38.395Z,6.00
2019-04-04T08:10:19.589Z,6.00
2019-04-04T08:12:38.748Z,6.00
2019-04-04T08:15:08.144Z,6.20
2019-04-04T08:17:37.230Z,6.10
2019-04-04T08:20:07.113Z,6.10
2019-04-04T08:22:39.675Z,6.00
2019-04-04T08:25:08.844Z,6.20
2019-04-04T08:27:37.946Z,6.30
2019-04-04T08:30:08.754Z,6.40
2019-04-04T08:32:38.026Z,6.50
2019-04-04T08:35:08.237Z,6.50
2019-04-04T08:37:37.295Z,6.50
2019-04-04T08:40:07.372Z,6.50
2019-04-04T08:42:36.328Z,6.50
2019-04-04T08:45:08.460Z,6.60
2019-04-04T08:47:37.602Z,6.60
2019-04-04T08:50:06.912Z,6.80
2019-04-04T08:52:35.948Z,6.70
2019-04-04T08:55:06.916Z,6.70
2019-04-04T08:57:36.028Z,6.70
2019-04-04T09:00:07.536Z,6.60
2019-04-04T09:02:36.685Z,6.60
2019-04-04T09:05:12.073Z,6.70
2019-04-04T09:07:37.893Z,6.70
2019-04-04T09:10:07.738Z,6.60
2019-04-04T09:12:36.689Z,6.60
2019-04-04T09:15:06.994Z,6.50
2019-04-04T09:17:36.010Z,6.60
2019-04-04T09:20:09.378Z,6.70
2019-04-04T09:22:37.800Z,6.70
2019-04-04T09:25:10.300Z,6.70
2019-04-04T09:27:38.566Z,6.90
2019-04-04T09:30:08.616Z,7.00
2019-04-04T09:32:37.849Z,7.00
2019-04-04T09:35:08.405Z,7.10
2019-04-04T09:37:37.599Z,7.10
2019-04-04T09:40:08.837Z,7.00
2019-04-04T09:42:37.818Z,7.10
2019-04-04T09:45:09.017Z,7.00
2019-04-04T09:47:39.593Z,7.00
2019-04-04T09:50:09.498Z,7.00
2019-04-04T09:52:38.512Z,7.00
2019-04-04T09:55:10.937Z,7.00
2019-04-04T09:57:39.938Z,7.00
2019-04-04T10:00:12.096Z,6.90
2019-04-04T10:02:41.610Z,6.90
2019-04-04T10:05:11.592Z,6.90
2019-04-04T10:07:40.651Z,6.80
2019-04-04T10:10:10.534Z,6.80
2019-04-04T10:12:39.530Z,6.80
2019-04-04T10:15:08.927Z,6.70
2019-04-04T10:17:38.021Z,6.70
2019-04-04T10:20:07.625Z,6.70
2019-04-04T10:22:37.156Z,6.70
2019-04-04T10:25:06.380Z,6.80
2019-04-04T10:27:35.407Z,6.80
2019-04-04T10:30:06.886Z,6.80
2019-04-04T10:32:36.066Z,6.70
2019-04-04T10:35:07.113Z,6.70
2019-04-04T10:37:36.200Z,6.70
2019-04-04T10:40:09.522Z,6.70
2019-04-04T10:42:38.549Z,6.60
2019-04-04T10:45:08.054Z,6.60
2019-04-04T10:47:37.091Z,6.60
2019-04-04T10:50:08.525Z,6.50
2019-04-04T10:52:37.647Z,6.40
2019-04-04T10:55:07.481Z,6.30
2019-04-04T10:57:36.641Z,6.30
2019-04-04T11:00:10.196Z,6.30
2019-04-04T11:02:39.480Z,6.30
2019-04-04T11:05:08.745Z,6.10
2019-04-04T11:07:37.853Z,6.00
2019-04-04T11:10:07.274Z,5.90
2019-04-04T11:12:36.296Z,5.90
2019-04-04T11:15:07.024Z,5.80
2019-04-04T11:17:36.058Z,5.80
2019-04-04T11:20:06.927Z,5.60
2019-04-04T11:22:36.019Z,5.60
2019-04-04T11:25:06.084Z,5.60
2019-04-04T11:27:35.225Z,5.60
2019-04-04T11:30:06.613Z,5.40
2019-04-04T11:32:35.925Z,5.20
2019-04-04T11:35:06.865Z,5.20
2019-04-04T11:37:36.007Z,5.10
2019-04-04T11:40:05.838Z,5.10
2019-04-04T11:42:36.461Z,5.20
2019-04-04T11:45:06.095Z,5.20
2019-04-04T11:47:35.792Z,5.20
2019-04-04T11:50:07.140Z,5.20
2019-04-04T11:52:36.221Z,5.20
2019-04-04T11:55:06.828Z,5.30
2019-04-04T11:57:36.450Z,5.20
2019-04-04T12:00:07.358Z,5.30
2019-04-04T12:02:36.395Z,5.30
2019-04-04T12:05:07.698Z,5.40
2019-04-04T12:07:38.421Z,5.40
2019-04-04T12:10:08.367Z,5.50
2019-04-04T12:12:37.513Z,5.50
2019-04-04T12:15:09.901Z,5.50
2019-04-04T12:17:39.066Z,5.60
2019-04-04T12:20:09.374Z,5.60
2019-04-04T12:22:38.588Z,5.60
2019-04-04T12:25:08.062Z,5.80
2019-04-04T12:27:37.175Z,5.90
2019-04-04T12:30:07.366Z,5.90
2019-04-04T12:32:36.419Z,5.90
2019-04-04T12:35:06.097Z,5.90
2019-04-04T12:37:35.337Z,5.90
2019-04-04T12:40:19.504Z,5.90
2019-04-04T12:42:38.245Z,5.90
2019-04-04T12:45:08.361Z,5.80
2019-04-04T12:47:37.912Z,5.80
2019-04-04T12:50:07.393Z,5.80
2019-04-04T12:52:37.000Z,5.90
2019-04-04T12:55:07.339Z,6.10
2019-04-04T12:57:36.489Z,6.20
2019-04-04T13:00:08.513Z,6.20
2019-04-04T13:02:37.612Z,6.30
2019-04-04T13:05:08.374Z,6.30
2019-04-04T13:07:37.474Z,6.40
2019-04-04T13:10:11.756Z,6.50
2019-04-04T13:12:39.489Z,6.50
2019-04-04T13:15:09.982Z,6.50
2019-04-04T13:17:39.017Z,6.60
2019-04-04T13:20:08.589Z,6.60
2019-04-04T13:22:37.720Z,6.40
2019-04-04T13:25:08.627Z,6.50
2019-04-04T13:27:37.933Z,6.30
2019-04-04T13:30:09.302Z,6.30
2019-04-04T13:32:38.539Z,6.30
2019-04-04T13:35:08.804Z,6.20
2019-04-04T13:37:37.997Z,6.20
2019-04-04T13:40:07.586Z,6.10
2019-04-04T13:42:36.689Z,6.20
2019-04-04T13:45:09.167Z,6.20
2019-04-04T13:47:40.175Z,6.20
2019-04-04T13:50:12.510Z,6.30
2019-04-04T13:52:40.645Z,6.20
2019-04-04T13:55:09.984Z,6.30
2019-04-04T13:57:39.555Z,6.30
2019-04-04T14:00:09.784Z,6.20
2019-04-04T14:02:38.927Z,6.10
2019-04-04T14:05:11.485Z,6.10
2019-04-04T14:07:40.071Z,6.10
2019-04-04T14:10:09.586Z,6.00
2019-04-04T14:12:38.750Z,6.00
2019-04-04T14:15:12.502Z,6.00
2019-04-04T14:17:43.661Z,6.00
2019-04-04T14:20:12.415Z,6.00
2019-04-04T14:22:41.526Z,5.90
2019-04-04T14:25:10.850Z,5.70
2019-04-04T14:27:39.997Z,5.60
2019-04-04T14:30:10.270Z,5.60
2019-04-04T14:32:39.308Z,5.60
2019-04-04T14:35:10.304Z,5.60
2019-04-04T14:37:39.318Z,5.60
2019-04-04T14:40:09.161Z,5.60
2019-04-04T14:42:38.189Z,5.50
2019-04-04T14:45:08.497Z,5.50
2019-04-04T14:47:37.620Z,5.60
2019-04-04T14:50:08.939Z,5.60
2019-04-04T14:52:39.602Z,5.60
2019-04-04T14:55:09.076Z,5.50
2019-04-04T14:57:38.118Z,5.50
2019-04-04T15:00:10.739Z,5.60
2019-04-04T15:02:39.946Z,5.60
2019-04-04T15:05:09.329Z,5.60
2019-04-04T15:07:38.368Z,5.60
2019-04-04T15:10:07.448Z,5.60
2019-04-04T15:12:36.448Z,5.60
2019-04-04T15:15:06.821Z,5.60
2019-04-04T15:17:35.933Z,5.70
2019-04-04T15:20:06.904Z,5.70
2019-04-04T15:22:36.165Z,5.70
2019-04-04T15:25:06.003Z,5.70
2019-04-04T15:27:35.043Z,5.60
2019-04-04T15:30:06.087Z,5.50
2019-04-04T15:32:35.146Z,5.50
2019-04-04T15:35:05.444Z,5.50
2019-04-04T15:37:34.514Z,5.60
2019-04-04T15:40:05.864Z,5.40
2019-04-04T15:42:35.484Z,5.50
2019-04-04T15:45:06.363Z,5.50
2019-04-04T15:47:35.591Z,5.60
2019-04-04T15:50:06.873Z,5.60
2019-04-04T15:52:36.132Z,5.70
2019-04-04T15:55:05.995Z,5.60
2019-04-04T15:57:36.037Z,5.50
2019-04-04T16:00:07.200Z,5.40
2019-04-04T16:02:36.395Z,5.40
2019-04-04T16:05:07.285Z,5.50
2019-04-04T16:07:36.382Z,5.40
2019-04-04T16:10:07.249Z,5.40
2019-04-04T16:12:38.200Z,5.40
2019-04-04T16:15:07.733Z,5.50
2019-04-04T16:17:36.809Z,5.40
2019-04-04T16:20:07.935Z,5.50
2019-04-04T16:22:36.961Z,5.50
2019-04-04T16:25:07.348Z,5.50
2019-04-04T16:27:36.429Z,5.50
2019-04-04T16:30:08.156Z,5.50
2019-04-04T16:32:37.485Z,5.40
2019-04-04T16:35:07.793Z,5.20
2019-04-04T16:37:36.743Z,5.20
2019-04-04T16:40:10.646Z,5.30
2019-04-04T16:42:39.837Z,5.30
2019-04-04T16:45:09.586Z,5.30
2019-04-04T16:47:38.563Z,5.30
2019-04-04T16:50:08.188Z,5.30
2019-04-04T16:52:37.250Z,5.20
2019-04-04T16:55:08.091Z,5.30
2019-04-04T16:57:37.183Z,5.20
2019-04-04T17:00:09.407Z,5.20
2019-04-04T17:02:38.566Z,5.20
2019-04-04T17:05:10.748Z,5.20
2019-04-04T17:07:38.960Z,5.30
2019-04-04T17:10:09.208Z,5.30
2019-04-04T17:12:38.473Z,5.20
2019-04-04T17:15:08.190Z,5.20
2019-04-04T17:17:37.371Z,5.20
2019-04-04T17:20:08.685Z,5.10
2019-04-04T17:22:38.412Z,5.00
2019-04-04T17:25:07.589Z,5.00
2019-04-04T17:27:37.289Z,5.10
2019-04-04T17:30:09.855Z,5.20
2019-04-04T17:32:42.225Z,5.20
2019-04-04T17:35:11.855Z,5.20
2019-04-04T17:37:41.440Z,5.20
2019-04-04T17:40:11.178Z,5.10
2019-04-04T17:42:40.779Z,5.10
2019-04-04T17:45:11.475Z,5.20
2019-04-04T17:47:41.088Z,5.10
2019-04-04T17:50:12.122Z,5.00
2019-04-04T17:52:41.435Z,5.10
2019-04-04T17:55:10.877Z,5.10
2019-04-04T17:57:41.985Z,5.00
2019-04-04T18:00:12.682Z,5.00
2019-04-04T18:02:42.015Z,5.00
2019-04-04T18:05:11.275Z,4.90
2019-04-04T18:07:40.410Z,4.90
2019-04-04T18:10:10.161Z,4.90
2019-04-04T18:12:40.948Z,4.80
2019-04-04T18:15:10.833Z,4.80
2019-04-04T18:17:39.916Z,4.80
2019-04-04T18:20:10.379Z,4.70
2019-04-04T18:22:39.407Z,4.70
2019-04-04T18:25:08.785Z,4.60
2019-04-04T18:27:38.111Z,4.60
2019-04-04T18:30:09.818Z,4.50
2019-04-04T18:32:38.820Z,4.50
2019-04-04T18:35:08.730Z,4.50
2019-04-04T18:37:38.124Z,4.50
2019-04-04T18:40:09.322Z,4.50
2019-04-04T18:42:38.743Z,4.50
2019-04-04T18:45:08.411Z,4.50
2019-04-04T18:47:37.436Z,4.50
2019-04-04T18:50:07.675Z,4.60
2019-04-04T18:52:36.623Z,4.60
2019-04-04T18:55:19.149Z,4.70
2019-04-04T18:57:38.513Z,4.70
2019-04-04T19:00:10.664Z,4.80
2019-04-04T19:02:40.206Z,4.80
2019-04-04T19:05:09.921Z,4.80
2019-04-04T19:07:39.915Z,4.80
2019-04-04T19:10:09.816Z,4.80
2019-04-04T19:12:38.932Z,4.80
2019-04-04T19:15:08.453Z,4.80
2019-04-04T19:17:38.966Z,4.80
2019-04-04T19:20:10.118Z,4.70
2019-04-04T19:22:39.658Z,4.80
2019-04-04T19:25:09.518Z,4.70
2019-04-04T19:27:38.545Z,4.70
2019-04-04T19:30:09.439Z,4.50
2019-04-04T19:32:38.570Z,4.60
2019-04-04T19:35:08.924Z,4.60
2019-04-04T19:37:37.965Z,4.60
2019-04-04T19:40:08.761Z,4.50
2019-04-04T19:42:37.777Z,4.50
2019-04-04T19:45:08.607Z,4.50
2019-04-04T19:47:37.859Z,4.50
2019-04-04T19:50:11.581Z,4.40
2019-04-04T19:52:40.738Z,4.40
2019-04-04T19:55:10.001Z,4.40
2019-04-04T19:57:39.012Z,4.50
2019-04-04T20:00:09.177Z,4.50
2019-04-04T20:02:38.378Z,4.50
2019-04-04T20:05:08.027Z,4.40
2019-04-04T20:07:37.080Z,4.40
2019-04-04T20:10:07.720Z,4.40
2019-04-04T20:12:36.917Z,4.50
2019-04-04T20:15:06.806Z,4.50
2019-04-04T20:17:36.042Z,4.50
2019-04-04T20:20:08.113Z,4.60
2019-04-04T20:22:37.237Z,4.60
2019-04-04T20:25:07.653Z,4.60
2019-04-04T20:27:36.854Z,4.70
2019-04-04T20:30:14.247Z,4.80
2019-04-04T20:32:43.005Z,4.80
2019-04-04T20:35:12.291Z,4.80
2019-04-04T20:37:41.267Z,4.80
2019-04-04T20:40:10.638Z,4.80
2019-04-04T20:42:39.721Z,4.80
2019-04-04T20:45:08.892Z,4.70
2019-04-04T20:47:58.881Z,4.80
2019-04-04T20:50:28.095Z,4.70
2019-04-04T20:52:57.126Z,4.80
2019-04-04T20:55:26.174Z,4.70
2019-04-04T20:57:55.303Z,4.80
2019-04-04T21:00:24.235Z,4.80
2019-04-04T21:02:53.227Z,4.70
2019-04-04T21:05:22.348Z,4.70
2019-04-04T21:07:51.441Z,4.70
2019-04-04T21:10:20.433Z,4.80
2019-04-04T21:12:49.474Z,4.90
2019-04-04T21:15:18.782Z,4.90
2019-04-04T21:17:48.072Z,5.00
2019-04-04T21:20:17.120Z,5.00
2019-04-04T21:22:46.090Z,5.10
2019-04-04T21:25:15.220Z,5.10
2019-04-04T21:27:44.468Z,5.10
2019-04-04T21:30:14.042Z,5.10
2019-04-04T21:32:43.078Z,5.20
2019-04-04T21:35:12.212Z,5.20
2019-04-04T21:37:41.190Z,5.30
2019-04-04T21:40:11.003Z,5.30
2019-04-04T21:42:40.016Z,5.30
2019-04-04T21:45:09.429Z,5.30
2019-04-04T21:47:38.391Z,5.20
2019-04-04T21:50:08.409Z,5.10
2019-04-04T21:52:37.832Z,5.10
2019-04-04T21:55:07.163Z,5.10
2019-04-04T21:57:36.217Z,5.10
2019-04-04T22:00:07.890Z,5.10
2019-04-04T22:02:37.004Z,5.20
2019-04-04T22:05:09.466Z,5.20
2019-04-04T22:07:38.400Z,5.20
2019-04-04T22:10:08.567Z,5.20
2019-04-04T22:12:37.514Z,5.20
2019-04-04T22:15:08.423Z,5.20
2019-04-04T22:17:37.439Z,5.20
2019-04-04T22:20:07.003Z,5.20
2019-04-04T22:22:36.149Z,5.20
2019-04-04T22:25:06.718Z,5.30
2019-04-04T22:27:35.948Z,5.30
2019-04-04T22:30:07.900Z,5.30
2019-04-04T22:32:37.159Z,5.40
2019-04-04T22:35:07.287Z,5.40
2019-04-04T22:37:36.574Z,5.40
2019-04-04T22:40:07.061Z,5.40
2019-04-04T22:42:36.075Z,5.40
2019-04-04T22:45:08.399Z,5.40
2019-04-04T22:47:37.515Z,5.40
2019-04-04T22:50:08.251Z,5.40
2019-04-04T22:52:37.333Z,5.40
2019-04-04T22:55:06.351Z,5.40
2019-04-04T22:57:35.499Z,5.40
2019-04-04T23:00:07.100Z,5.50
2019-04-04T23:02:36.348Z,5.40
2019-04-04T23:05:05.920Z,5.40
2019-04-04T23:07:35.152Z,5.50
2019-04-04T23:10:06.410Z,5.50
2019-04-04T23:12:35.458Z,5.50
2019-04-04T23:15:09.324Z,5.50
2019-04-04T23:17:38.603Z,5.60
2019-04-04T23:20:09.384Z,5.60
2019-04-04T23:22:38.347Z,5.60
2019-04-04T23:25:07.989Z,5.60
2019-04-04T23:27:36.961Z,5.60
2019-04-04T23:30:08.387Z,5.60
2019-04-04T23:32:37.456Z,5.60
2019-04-04T23:35:07.947Z,5.60
2019-04-04T23:37:37.269Z,5.60
2019-04-04T23:40:06.658Z,5.70
2019-04-04T23:42:35.747Z,5.70
2019-04-04T23:45:07.879Z,5.70
2019-04-04T23:47:42.599Z,5.70
2019-04-04T23:50:08.020Z,5.70
2019-04-04T23:52:37.093Z,5.70
2019-04-04T23:55:07.017Z,5.80
2019-04-04T23:57:36.137Z,5.70
